sensor_id;sensor_type;location;lat;lon;timestamp;P1;durP1;ratioP1;P2;durP2;ratioP2
10725;SDS011;5414;59.782;16.378;2023-05-07T00:01:56;2.30;;;1.73;;
10725;SDS011;5414;59.782;16.378;2023-05-07T00:04:22;3.33;;;2.00;;
10725;SDS011;5414;59.782;16.378;2023-05-07T00:06:48;2.27;;;1.60;;
10725;SDS011;5414;59.782;16.378;2023-05-07T00:09:14;2.20;;;2.00;;
10725;SDS011;5414;59.782;16.378;2023-05-07T00:11:41;2.77;;;1.70;;
10725;SDS011;5414;59.782;16.378;2023-05-07T00:14:07;2.17;;;1.83;;
10725;SDS011;5414;59.782;16.378;2023-05-07T00:16:33;3.93;;;2.00;;
10725;SDS011;5414;59.782;16.378;2023-05-07T00:18:59;4.77;;;1.80;;
10725;SDS011;5414;59.782;16.378;2023-05-07T00:21:25;2.70;;;2.23;;
10725;SDS011;5414;59.782;16.378;2023-05-07T00:23:52;2.70;;;2.00;;
10725;SDS011;5414;59.782;16.378;2023-05-07T00:26:18;2.57;;;2.00;;
10725;SDS011;5414;59.782;16.378;2023-05-07T00:28:45;2.30;;;2.10;;
10725;SDS011;5414;59.782;16.378;2023-05-07T00:31:11;4.33;;;2.30;;
10725;SDS011;5414;59.782;16.378;2023-05-07T00:33:37;3.27;;;2.10;;
10725;SDS011;5414;59.782;16.378;2023-05-07T00:36:04;2.80;;;2.20;;
10725;SDS011;5414;59.782;16.378;2023-05-07T00:38:30;2.03;;;1.70;;
10725;SDS011;5414;59.782;16.378;2023-05-07T00:40:56;2.50;;;1.90;;
10725;SDS011;5414;59.782;16.378;2023-05-07T00:43:22;2.00;;;1.80;;
10725;SDS011;5414;59.782;16.378;2023-05-07T00:45:48;3.30;;;2.20;;
10725;SDS011;5414;59.782;16.378;2023-05-07T00:48:15;2.07;;;1.70;;
10725;SDS011;5414;59.782;16.378;2023-05-07T00:50:41;2.40;;;2.20;;
10725;SDS011;5414;59.782;16.378;2023-05-07T00:53:07;2.47;;;1.90;;
10725;SDS011;5414;59.782;16.378;2023-05-07T00:55:34;1.87;;;1.73;;
10725;SDS011;5414;59.782;16.378;2023-05-07T00:58:01;4.23;;;2.00;;
10725;SDS011;5414;59.782;16.378;2023-05-07T01:00:27;2.10;;;2.00;;
10725;SDS011;5414;59.782;16.378;2023-05-07T01:02:53;2.23;;;1.70;;
10725;SDS011;5414;59.782;16.378;2023-05-07T01:05:20;3.87;;;2.10;;
10725;SDS011;5414;59.782;16.378;2023-05-07T01:07:46;3.03;;;2.20;;
10725;SDS011;5414;59.782;16.378;2023-05-07T01:10:13;3.17;;;2.03;;
10725;SDS011;5414;59.782;16.378;2023-05-07T01:12:39;1.93;;;1.80;;
10725;SDS011;5414;59.782;16.378;2023-05-07T01:15:07;2.33;;;1.93;;
10725;SDS011;5414;59.782;16.378;2023-05-07T01:17:34;1.93;;;1.80;;
10725;SDS011;5414;59.782;16.378;2023-05-07T01:20:00;2.20;;;2.00;;
10725;SDS011;5414;59.782;16.378;2023-05-07T01:22:47;2.33;;;1.80;;
10725;SDS011;5414;59.782;16.378;2023-05-07T01:25:12;2.37;;;2.03;;
10725;SDS011;5414;59.782;16.378;2023-05-07T01:27:41;2.27;;;2.07;;
10725;SDS011;5414;59.782;16.378;2023-05-07T01:30:07;2.90;;;2.10;;
10725;SDS011;5414;59.782;16.378;2023-05-07T01:32:35;2.33;;;2.00;;
10725;SDS011;5414;59.782;16.378;2023-05-07T01:35:03;2.57;;;2.17;;
10725;SDS011;5414;59.782;16.378;2023-05-07T01:37:30;3.03;;;2.20;;
10725;SDS011;5414;59.782;16.378;2023-05-07T01:39:57;2.20;;;2.00;;
10725;SDS011;5414;59.782;16.378;2023-05-07T01:42:23;3.27;;;2.47;;
10725;SDS011;5414;59.782;16.378;2023-05-07T01:44:49;3.00;;;2.27;;
10725;SDS011;5414;59.782;16.378;2023-05-07T01:47:15;2.47;;;2.13;;
10725;SDS011;5414;59.782;16.378;2023-05-07T01:49:41;2.40;;;2.20;;
10725;SDS011;5414;59.782;16.378;2023-05-07T01:52:09;2.40;;;2.20;;
10725;SDS011;5414;59.782;16.378;2023-05-07T01:54:35;3.57;;;2.40;;
10725;SDS011;5414;59.782;16.378;2023-05-07T01:57:01;2.90;;;2.60;;
10725;SDS011;5414;59.782;16.378;2023-05-07T01:59:27;4.53;;;2.30;;
10725;SDS011;5414;59.782;16.378;2023-05-07T02:01:53;3.43;;;2.47;;
10725;SDS011;5414;59.782;16.378;2023-05-07T02:04:19;2.90;;;2.23;;
10725;SDS011;5414;59.782;16.378;2023-05-07T02:06:45;3.33;;;2.60;;
10725;SDS011;5414;59.782;16.378;2023-05-07T02:09:11;3.60;;;2.70;;
10725;SDS011;5414;59.782;16.378;2023-05-07T02:11:37;3.23;;;2.80;;
10725;SDS011;5414;59.782;16.378;2023-05-07T02:14:03;3.53;;;3.03;;
10725;SDS011;5414;59.782;16.378;2023-05-07T02:16:30;2.80;;;2.53;;
10725;SDS011;5414;59.782;16.378;2023-05-07T02:18:56;3.00;;;2.70;;
10725;SDS011;5414;59.782;16.378;2023-05-07T02:21:23;4.33;;;2.60;;
10725;SDS011;5414;59.782;16.378;2023-05-07T02:23:49;3.13;;;2.80;;
10725;SDS011;5414;59.782;16.378;2023-05-07T02:26:15;4.03;;;2.87;;
10725;SDS011;5414;59.782;16.378;2023-05-07T02:28:41;2.93;;;2.57;;
10725;SDS011;5414;59.782;16.378;2023-05-07T02:31:07;3.40;;;2.70;;
10725;SDS011;5414;59.782;16.378;2023-05-07T02:33:33;3.90;;;2.87;;
10725;SDS011;5414;59.782;16.378;2023-05-07T02:36:09;2.50;;;2.20;;
10725;SDS011;5414;59.782;16.378;2023-05-07T02:38:36;3.10;;;2.80;;
10725;SDS011;5414;59.782;16.378;2023-05-07T02:41:02;3.83;;;2.73;;
10725;SDS011;5414;59.782;16.378;2023-05-07T02:43:28;2.90;;;2.60;;
10725;SDS011;5414;59.782;16.378;2023-05-07T02:46:04;4.03;;;3.00;;
10725;SDS011;5414;59.782;16.378;2023-05-07T02:48:30;5.00;;;2.67;;
10725;SDS011;5414;59.782;16.378;2023-05-07T02:50:57;3.17;;;2.20;;
10725;SDS011;5414;59.782;16.378;2023-05-07T02:53:23;3.17;;;2.87;;
10725;SDS011;5414;59.782;16.378;2023-05-07T02:55:56;4.33;;;2.47;;
10725;SDS011;5414;59.782;16.378;2023-05-07T02:58:22;3.03;;;2.73;;
10725;SDS011;5414;59.782;16.378;2023-05-07T03:00:48;3.93;;;2.73;;
10725;SDS011;5414;59.782;16.378;2023-05-07T03:03:15;3.47;;;2.73;;
10725;SDS011;5414;59.782;16.378;2023-05-07T03:05:41;4.20;;;2.73;;
10725;SDS011;5414;59.782;16.378;2023-05-07T03:08:07;3.50;;;2.60;;
10725;SDS011;5414;59.782;16.378;2023-05-07T03:10:33;3.43;;;3.07;;
10725;SDS011;5414;59.782;16.378;2023-05-07T03:13:00;4.17;;;3.00;;
10725;SDS011;5414;59.782;16.378;2023-05-07T03:15:26;3.63;;;3.17;;
10725;SDS011;5414;59.782;16.378;2023-05-07T03:17:52;3.67;;;2.87;;
10725;SDS011;5414;59.782;16.378;2023-05-07T03:20:18;3.20;;;2.90;;
10725;SDS011;5414;59.782;16.378;2023-05-07T03:22:44;3.30;;;2.80;;
10725;SDS011;5414;59.782;16.378;2023-05-07T03:25:10;3.37;;;2.73;;
10725;SDS011;5414;59.782;16.378;2023-05-07T03:27:36;4.13;;;2.97;;
10725;SDS011;5414;59.782;16.378;2023-05-07T03:30:03;3.67;;;2.70;;
10725;SDS011;5414;59.782;16.378;2023-05-07T03:32:29;4.37;;;3.50;;
10725;SDS011;5414;59.782;16.378;2023-05-07T03:34:55;3.70;;;3.30;;
10725;SDS011;5414;59.782;16.378;2023-05-07T03:37:21;3.80;;;3.10;;
10725;SDS011;5414;59.782;16.378;2023-05-07T03:39:47;3.93;;;3.23;;
10725;SDS011;5414;59.782;16.378;2023-05-07T03:42:13;4.77;;;3.43;;
10725;SDS011;5414;59.782;16.378;2023-05-07T03:44:39;3.83;;;3.40;;
10725;SDS011;5414;59.782;16.378;2023-05-07T03:47:05;4.63;;;3.43;;
10725;SDS011;5414;59.782;16.378;2023-05-07T03:49:31;3.87;;;3.20;;
10725;SDS011;5414;59.782;16.378;2023-05-07T03:51:57;3.60;;;3.00;;
10725;SDS011;5414;59.782;16.378;2023-05-07T03:54:23;3.87;;;3.30;;
10725;SDS011;5414;59.782;16.378;2023-05-07T03:56:49;3.77;;;3.00;;
10725;SDS011;5414;59.782;16.378;2023-05-07T03:59:15;5.30;;;3.40;;
10725;SDS011;5414;59.782;16.378;2023-05-07T04:01:41;4.63;;;3.90;;
10725;SDS011;5414;59.782;16.378;2023-05-07T04:04:07;5.33;;;3.63;;
10725;SDS011;5414;59.782;16.378;2023-05-07T04:06:33;3.93;;;3.40;;
10725;SDS011;5414;59.782;16.378;2023-05-07T04:08:59;4.27;;;3.30;;
10725;SDS011;5414;59.782;16.378;2023-05-07T04:11:26;4.60;;;3.23;;
10725;SDS011;5414;59.782;16.378;2023-05-07T04:13:52;3.30;;;2.90;;
10725;SDS011;5414;59.782;16.378;2023-05-07T04:16:18;4.63;;;3.10;;
10725;SDS011;5414;59.782;16.378;2023-05-07T04:18:45;2.97;;;2.70;;
10725;SDS011;5414;59.782;16.378;2023-05-07T04:21:15;3.60;;;2.97;;
10725;SDS011;5414;59.782;16.378;2023-05-07T04:23:41;3.30;;;3.00;;
10725;SDS011;5414;59.782;16.378;2023-05-07T04:26:07;4.33;;;3.20;;
10725;SDS011;5414;59.782;16.378;2023-05-07T04:28:33;3.07;;;2.67;;
10725;SDS011;5414;59.782;16.378;2023-05-07T04:31:00;2.80;;;2.50;;
10725;SDS011;5414;59.782;16.378;2023-05-07T04:33:26;2.90;;;2.70;;
10725;SDS011;5414;59.782;16.378;2023-05-07T04:35:52;3.87;;;2.53;;
10725;SDS011;5414;59.782;16.378;2023-05-07T04:38:18;2.90;;;2.60;;
10725;SDS011;5414;59.782;16.378;2023-05-07T04:40:44;3.30;;;2.40;;
10725;SDS011;5414;59.782;16.378;2023-05-07T04:43:11;3.43;;;2.57;;
10725;SDS011;5414;59.782;16.378;2023-05-07T04:45:38;3.27;;;2.97;;
10725;SDS011;5414;59.782;16.378;2023-05-07T04:48:06;3.60;;;2.70;;
10725;SDS011;5414;59.782;16.378;2023-05-07T04:50:32;2.60;;;2.40;;
10725;SDS011;5414;59.782;16.378;2023-05-07T04:52:58;2.60;;;2.40;;
10725;SDS011;5414;59.782;16.378;2023-05-07T04:55:24;3.50;;;2.60;;
10725;SDS011;5414;59.782;16.378;2023-05-07T04:57:51;2.57;;;2.37;;
10725;SDS011;5414;59.782;16.378;2023-05-07T05:00:17;3.90;;;2.60;;
10725;SDS011;5414;59.782;16.378;2023-05-07T05:02:44;3.20;;;2.50;;
10725;SDS011;5414;59.782;16.378;2023-05-07T05:05:10;2.70;;;2.50;;
10725;SDS011;5414;59.782;16.378;2023-05-07T05:07:36;3.90;;;2.93;;
10725;SDS011;5414;59.782;16.378;2023-05-07T05:10:03;2.30;;;2.10;;
10725;SDS011;5414;59.782;16.378;2023-05-07T05:12:29;3.50;;;2.50;;
10725;SDS011;5414;59.782;16.378;2023-05-07T05:14:55;3.00;;;2.53;;
10725;SDS011;5414;59.782;16.378;2023-05-07T05:17:21;3.03;;;2.50;;
10725;SDS011;5414;59.782;16.378;2023-05-07T05:19:47;2.60;;;2.40;;
10725;SDS011;5414;59.782;16.378;2023-05-07T05:22:13;4.43;;;2.50;;
10725;SDS011;5414;59.782;16.378;2023-05-07T05:24:40;2.60;;;2.40;;
10725;SDS011;5414;59.782;16.378;2023-05-07T05:27:06;2.57;;;2.27;;
10725;SDS011;5414;59.782;16.378;2023-05-07T05:29:32;3.20;;;2.43;;
10725;SDS011;5414;59.782;16.378;2023-05-07T05:31:58;2.97;;;2.67;;
10725;SDS011;5414;59.782;16.378;2023-05-07T05:34:24;2.27;;;2.07;;
10725;SDS011;5414;59.782;16.378;2023-05-07T05:36:50;2.30;;;2.10;;
10725;SDS011;5414;59.782;16.378;2023-05-07T05:39:16;3.80;;;2.77;;
10725;SDS011;5414;59.782;16.378;2023-05-07T05:41:42;3.67;;;2.40;;
10725;SDS011;5414;59.782;16.378;2023-05-07T05:44:08;2.40;;;2.20;;
10725;SDS011;5414;59.782;16.378;2023-05-07T05:46:34;2.47;;;2.23;;
10725;SDS011;5414;59.782;16.378;2023-05-07T05:49:00;3.33;;;2.20;;
10725;SDS011;5414;59.782;16.378;2023-05-07T05:51:26;2.70;;;2.43;;
10725;SDS011;5414;59.782;16.378;2023-05-07T05:53:52;2.53;;;2.20;;
10725;SDS011;5414;59.782;16.378;2023-05-07T05:56:19;2.43;;;2.20;;
10725;SDS011;5414;59.782;16.378;2023-05-07T05:58:46;3.10;;;2.20;;
10725;SDS011;5414;59.782;16.378;2023-05-07T06:01:12;2.03;;;1.87;;
10725;SDS011;5414;59.782;16.378;2023-05-07T06:03:38;4.23;;;2.00;;
10725;SDS011;5414;59.782;16.378;2023-05-07T06:06:04;2.20;;;1.87;;
10725;SDS011;5414;59.782;16.378;2023-05-07T06:08:30;2.30;;;2.10;;
10725;SDS011;5414;59.782;16.378;2023-05-07T06:10:56;4.77;;;2.10;;
10725;SDS011;5414;59.782;16.378;2023-05-07T06:13:22;5.17;;;2.10;;
10725;SDS011;5414;59.782;16.378;2023-05-07T06:15:49;2.20;;;2.00;;
10725;SDS011;5414;59.782;16.378;2023-05-07T06:18:15;2.00;;;1.80;;
10725;SDS011;5414;59.782;16.378;2023-05-07T06:20:41;2.10;;;1.90;;
10725;SDS011;5414;59.782;16.378;2023-05-07T06:23:07;2.00;;;1.80;;
10725;SDS011;5414;59.782;16.378;2023-05-07T06:25:33;2.43;;;1.90;;
10725;SDS011;5414;59.782;16.378;2023-05-07T06:27:59;2.27;;;1.90;;
10725;SDS011;5414;59.782;16.378;2023-05-07T06:30:25;2.07;;;1.80;;
10725;SDS011;5414;59.782;16.378;2023-05-07T06:32:51;2.27;;;1.90;;
10725;SDS011;5414;59.782;16.378;2023-05-07T06:35:18;2.03;;;1.73;;
10725;SDS011;5414;59.782;16.378;2023-05-07T06:37:44;2.07;;;1.83;;
10725;SDS011;5414;59.782;16.378;2023-05-07T06:40:10;2.53;;;1.93;;
10725;SDS011;5414;59.782;16.378;2023-05-07T06:42:36;2.07;;;1.87;;
10725;SDS011;5414;59.782;16.378;2023-05-07T06:45:03;2.07;;;1.87;;
10725;SDS011;5414;59.782;16.378;2023-05-07T06:47:29;2.00;;;1.80;;
10725;SDS011;5414;59.782;16.378;2023-05-07T06:49:55;2.93;;;1.93;;
10725;SDS011;5414;59.782;16.378;2023-05-07T06:52:22;2.17;;;1.80;;
10725;SDS011;5414;59.782;16.378;2023-05-07T06:54:48;2.47;;;1.70;;
10725;SDS011;5414;59.782;16.378;2023-05-07T06:57:14;2.03;;;1.80;;
10725;SDS011;5414;59.782;16.378;2023-05-07T06:59:40;2.23;;;1.80;;
10725;SDS011;5414;59.782;16.378;2023-05-07T07:02:06;1.83;;;1.73;;
10725;SDS011;5414;59.782;16.378;2023-05-07T07:04:33;2.43;;;1.87;;
10725;SDS011;5414;59.782;16.378;2023-05-07T07:06:59;2.83;;;1.70;;
10725;SDS011;5414;59.782;16.378;2023-05-07T07:09:25;3.73;;;1.90;;
10725;SDS011;5414;59.782;16.378;2023-05-07T07:11:51;3.40;;;1.60;;
10725;SDS011;5414;59.782;16.378;2023-05-07T07:14:17;3.07;;;1.80;;
10725;SDS011;5414;59.782;16.378;2023-05-07T07:16:43;2.33;;;1.80;;
10725;SDS011;5414;59.782;16.378;2023-05-07T07:19:09;1.77;;;1.60;;
10725;SDS011;5414;59.782;16.378;2023-05-07T07:21:35;2.27;;;1.47;;
10725;SDS011;5414;59.782;16.378;2023-05-07T07:24:01;2.73;;;1.50;;
10725;SDS011;5414;59.782;16.378;2023-05-07T07:26:27;2.10;;;1.60;;
10725;SDS011;5414;59.782;16.378;2023-05-07T07:28:53;2.20;;;1.57;;
10725;SDS011;5414;59.782;16.378;2023-05-07T07:31:19;1.87;;;1.63;;
10725;SDS011;5414;59.782;16.378;2023-05-07T07:33:45;2.17;;;1.60;;
10725;SDS011;5414;59.782;16.378;2023-05-07T07:36:12;1.87;;;1.60;;
10725;SDS011;5414;59.782;16.378;2023-05-07T07:38:38;2.30;;;1.57;;
10725;SDS011;5414;59.782;16.378;2023-05-07T07:41:04;1.97;;;1.80;;
10725;SDS011;5414;59.782;16.378;2023-05-07T07:43:30;2.07;;;1.40;;
10725;SDS011;5414;59.782;16.378;2023-05-07T07:45:56;2.53;;;1.70;;
10725;SDS011;5414;59.782;16.378;2023-05-07T07:48:22;2.20;;;1.97;;
10725;SDS011;5414;59.782;16.378;2023-05-07T07:50:48;2.03;;;1.60;;
10725;SDS011;5414;59.782;16.378;2023-05-07T07:53:16;1.73;;;1.40;;
10725;SDS011;5414;59.782;16.378;2023-05-07T07:55:42;1.70;;;1.60;;
10725;SDS011;5414;59.782;16.378;2023-05-07T07:58:09;1.60;;;1.50;;
10725;SDS011;5414;59.782;16.378;2023-05-07T08:00:35;2.73;;;1.60;;
10725;SDS011;5414;59.782;16.378;2023-05-07T08:03:01;2.83;;;1.50;;
10725;SDS011;5414;59.782;16.378;2023-05-07T08:05:28;1.73;;;1.30;;
10725;SDS011;5414;59.782;16.378;2023-05-07T08:07:54;2.57;;;1.60;;
10725;SDS011;5414;59.782;16.378;2023-05-07T08:10:21;3.23;;;1.97;;
10725;SDS011;5414;59.782;16.378;2023-05-07T08:12:50;1.83;;;1.53;;
10725;SDS011;5414;59.782;16.378;2023-05-07T08:15:16;2.47;;;1.60;;
10725;SDS011;5414;59.782;16.378;2023-05-07T08:17:42;2.60;;;1.87;;
10725;SDS011;5414;59.782;16.378;2023-05-07T08:20:09;1.40;;;1.30;;
10725;SDS011;5414;59.782;16.378;2023-05-07T08:22:36;2.37;;;1.80;;
10725;SDS011;5414;59.782;16.378;2023-05-07T08:25:02;1.73;;;1.50;;
10725;SDS011;5414;59.782;16.378;2023-05-07T08:27:28;1.40;;;1.30;;
10725;SDS011;5414;59.782;16.378;2023-05-07T08:29:54;1.73;;;1.47;;
10725;SDS011;5414;59.782;16.378;2023-05-07T08:32:21;2.43;;;1.57;;
10725;SDS011;5414;59.782;16.378;2023-05-07T08:34:47;1.50;;;1.40;;
10725;SDS011;5414;59.782;16.378;2023-05-07T08:37:13;3.40;;;1.50;;
10725;SDS011;5414;59.782;16.378;2023-05-07T08:39:39;2.97;;;1.40;;
10725;SDS011;5414;59.782;16.378;2023-05-07T08:42:05;2.00;;;1.67;;
10725;SDS011;5414;59.782;16.378;2023-05-07T08:44:33;1.50;;;1.40;;
10725;SDS011;5414;59.782;16.378;2023-05-07T08:47:02;1.60;;;1.47;;
10725;SDS011;5414;59.782;16.378;2023-05-07T08:49:29;1.83;;;1.30;;
10725;SDS011;5414;59.782;16.378;2023-05-07T08:51:55;1.70;;;1.60;;
10725;SDS011;5414;59.782;16.378;2023-05-07T08:54:22;2.00;;;1.57;;
10725;SDS011;5414;59.782;16.378;2023-05-07T08:56:49;1.60;;;1.50;;
10725;SDS011;5414;59.782;16.378;2023-05-07T08:59:15;3.27;;;1.73;;
10725;SDS011;5414;59.782;16.378;2023-05-07T09:01:41;1.93;;;1.50;;
10725;SDS011;5414;59.782;16.378;2023-05-07T09:04:07;3.07;;;1.50;;
10725;SDS011;5414;59.782;16.378;2023-05-07T09:06:34;1.93;;;1.53;;
10725;SDS011;5414;59.782;16.378;2023-05-07T09:09:01;1.50;;;1.40;;
10725;SDS011;5414;59.782;16.378;2023-05-07T09:11:30;3.53;;;1.60;;
10725;SDS011;5414;59.782;16.378;2023-05-07T09:13:56;2.60;;;1.50;;
10725;SDS011;5414;59.782;16.378;2023-05-07T09:16:24;1.47;;;1.37;;
10725;SDS011;5414;59.782;16.378;2023-05-07T09:18:51;1.87;;;1.40;;
10725;SDS011;5414;59.782;16.378;2023-05-07T09:21:18;1.73;;;1.50;;
10725;SDS011;5414;59.782;16.378;2023-05-07T09:23:44;1.93;;;1.47;;
10725;SDS011;5414;59.782;16.378;2023-05-07T09:26:10;1.47;;;1.37;;
10725;SDS011;5414;59.782;16.378;2023-05-07T09:28:40;2.57;;;1.43;;
10725;SDS011;5414;59.782;16.378;2023-05-07T09:31:06;2.60;;;1.50;;
10725;SDS011;5414;59.782;16.378;2023-05-07T09:33:32;1.50;;;1.40;;
10725;SDS011;5414;59.782;16.378;2023-05-07T09:36:01;2.40;;;1.63;;
10725;SDS011;5414;59.782;16.378;2023-05-07T09:38:28;2.10;;;1.47;;
10725;SDS011;5414;59.782;16.378;2023-05-07T09:41:04;2.00;;;1.50;;
10725;SDS011;5414;59.782;16.378;2023-05-07T09:43:34;2.03;;;1.70;;
10725;SDS011;5414;59.782;16.378;2023-05-07T09:46:06;2.10;;;1.60;;
10725;SDS011;5414;59.782;16.378;2023-05-07T09:48:35;2.60;;;1.60;;
10725;SDS011;5414;59.782;16.378;2023-05-07T09:51:02;1.50;;;1.40;;
10725;SDS011;5414;59.782;16.378;2023-05-07T09:53:31;1.60;;;1.50;;
10725;SDS011;5414;59.782;16.378;2023-05-07T09:55:59;2.30;;;1.57;;
10725;SDS011;5414;59.782;16.378;2023-05-07T09:58:25;1.93;;;1.60;;
10725;SDS011;5414;59.782;16.378;2023-05-07T10:00:52;2.23;;;1.37;;
10725;SDS011;5414;59.782;16.378;2023-05-07T10:03:19;3.90;;;1.50;;
10725;SDS011;5414;59.782;16.378;2023-05-07T10:05:46;2.30;;;1.47;;
10725;SDS011;5414;59.782;16.378;2023-05-07T10:08:12;2.27;;;1.40;;
10725;SDS011;5414;59.782;16.378;2023-05-07T10:10:39;2.27;;;1.37;;
10725;SDS011;5414;59.782;16.378;2023-05-07T10:13:06;2.13;;;1.33;;
10725;SDS011;5414;59.782;16.378;2023-05-07T10:15:37;1.50;;;1.40;;
10725;SDS011;5414;59.782;16.378;2023-05-07T10:18:04;1.50;;;1.40;;
10725;SDS011;5414;59.782;16.378;2023-05-07T10:20:33;2.00;;;1.40;;
10725;SDS011;5414;59.782;16.378;2023-05-07T10:23:00;1.40;;;1.30;;
10725;SDS011;5414;59.782;16.378;2023-05-07T10:25:30;1.73;;;1.50;;
10725;SDS011;5414;59.782;16.378;2023-05-07T10:27:57;1.77;;;1.30;;
10725;SDS011;5414;59.782;16.378;2023-05-07T10:33:04;1.50;;;1.40;;
10725;SDS011;5414;59.782;16.378;2023-05-07T10:35:32;1.63;;;1.50;;
10725;SDS011;5414;59.782;16.378;2023-05-07T10:38:02;3.23;;;1.60;;
10725;SDS011;5414;59.782;16.378;2023-05-07T10:40:28;2.10;;;1.47;;
10725;SDS011;5414;59.782;16.378;2023-05-07T10:42:58;2.43;;;1.60;;
10725;SDS011;5414;59.782;16.378;2023-05-07T10:45:25;1.60;;;1.50;;
10725;SDS011;5414;59.782;16.378;2023-05-07T10:50:37;1.40;;;1.30;;
10725;SDS011;5414;59.782;16.378;2023-05-07T10:55:51;1.57;;;1.30;;
10725;SDS011;5414;59.782;16.378;2023-05-07T10:58:29;2.57;;;1.47;;
10725;SDS011;5414;59.782;16.378;2023-05-07T11:00:56;1.87;;;1.60;;
10725;SDS011;5414;59.782;16.378;2023-05-07T11:03:23;1.63;;;1.30;;
10725;SDS011;5414;59.782;16.378;2023-05-07T11:06:08;1.67;;;1.57;;
10725;SDS011;5414;59.782;16.378;2023-05-07T11:08:53;1.60;;;1.40;;
10725;SDS011;5414;59.782;16.378;2023-05-07T11:11:43;1.40;;;1.30;;
10725;SDS011;5414;59.782;16.378;2023-05-07T11:14:08;1.60;;;1.37;;
10725;SDS011;5414;59.782;16.378;2023-05-07T11:16:34;1.70;;;1.47;;
10725;SDS011;5414;59.782;16.378;2023-05-07T11:19:01;2.33;;;1.60;;
10725;SDS011;5414;59.782;16.378;2023-05-07T11:21:40;1.70;;;1.47;;
10725;SDS011;5414;59.782;16.378;2023-05-07T11:24:07;1.70;;;1.50;;
10725;SDS011;5414;59.782;16.378;2023-05-07T11:26:49;1.90;;;1.50;;
10725;SDS011;5414;59.782;16.378;2023-05-07T11:29:16;1.67;;;1.50;;
10725;SDS011;5414;59.782;16.378;2023-05-07T11:31:42;1.60;;;1.40;;
10725;SDS011;5414;59.782;16.378;2023-05-07T11:34:08;1.60;;;1.47;;
10725;SDS011;5414;59.782;16.378;2023-05-07T11:36:35;2.47;;;1.30;;
10725;SDS011;5414;59.782;16.378;2023-05-07T11:39:01;1.73;;;1.40;;
10725;SDS011;5414;59.782;16.378;2023-05-07T11:41:36;2.23;;;1.40;;
10725;SDS011;5414;59.782;16.378;2023-05-07T11:44:02;1.60;;;1.30;;
10725;SDS011;5414;59.782;16.378;2023-05-07T11:46:28;2.37;;;1.27;;
10725;SDS011;5414;59.782;16.378;2023-05-07T11:48:55;1.90;;;1.20;;
10725;SDS011;5414;59.782;16.378;2023-05-07T11:51:24;1.77;;;1.30;;
10725;SDS011;5414;59.782;16.378;2023-05-07T11:53:52;2.33;;;1.50;;
10725;SDS011;5414;59.782;16.378;2023-05-07T11:56:18;2.53;;;1.10;;
10725;SDS011;5414;59.782;16.378;2023-05-07T11:58:45;1.80;;;1.30;;
10725;SDS011;5414;59.782;16.378;2023-05-07T12:01:11;3.40;;;1.47;;
10725;SDS011;5414;59.782;16.378;2023-05-07T12:03:41;2.07;;;1.40;;
10725;SDS011;5414;59.782;16.378;2023-05-07T12:06:08;1.70;;;1.30;;
10725;SDS011;5414;59.782;16.378;2023-05-07T12:08:36;1.23;;;1.10;;
10725;SDS011;5414;59.782;16.378;2023-05-07T12:11:03;2.17;;;1.40;;
10725;SDS011;5414;59.782;16.378;2023-05-07T12:13:29;1.57;;;1.20;;
10725;SDS011;5414;59.782;16.378;2023-05-07T12:15:55;1.30;;;1.20;;
10725;SDS011;5414;59.782;16.378;2023-05-07T12:18:22;1.47;;;1.33;;
10725;SDS011;5414;59.782;16.378;2023-05-07T12:20:49;2.10;;;1.10;;
10725;SDS011;5414;59.782;16.378;2023-05-07T12:23:15;2.40;;;1.40;;
10725;SDS011;5414;59.782;16.378;2023-05-07T12:25:42;1.50;;;1.40;;
10725;SDS011;5414;59.782;16.378;2023-05-07T12:28:14;1.63;;;1.20;;
10725;SDS011;5414;59.782;16.378;2023-05-07T12:30:42;1.50;;;1.33;;
10725;SDS011;5414;59.782;16.378;2023-05-07T12:33:08;1.77;;;1.50;;
10725;SDS011;5414;59.782;16.378;2023-05-07T12:35:38;2.30;;;1.20;;
10725;SDS011;5414;59.782;16.378;2023-05-07T12:38:08;1.80;;;1.20;;
10725;SDS011;5414;59.782;16.378;2023-05-07T12:43:04;2.23;;;1.30;;
10725;SDS011;5414;59.782;16.378;2023-05-07T12:45:30;1.50;;;1.40;;
10725;SDS011;5414;59.782;16.378;2023-05-07T12:48:00;1.87;;;1.10;;
10725;SDS011;5414;59.782;16.378;2023-05-07T12:50:30;2.13;;;1.40;;
10725;SDS011;5414;59.782;16.378;2023-05-07T12:52:56;1.83;;;1.40;;
10725;SDS011;5414;59.782;16.378;2023-05-07T12:55:23;1.93;;;1.20;;
10725;SDS011;5414;59.782;16.378;2023-05-07T12:57:49;2.77;;;1.30;;
10725;SDS011;5414;59.782;16.378;2023-05-07T13:00:31;1.30;;;1.20;;
10725;SDS011;5414;59.782;16.378;2023-05-07T13:02:58;3.57;;;1.33;;
10725;SDS011;5414;59.782;16.378;2023-05-07T13:05:24;1.63;;;1.37;;
10725;SDS011;5414;59.782;16.378;2023-05-07T13:07:53;2.30;;;1.33;;
10725;SDS011;5414;59.782;16.378;2023-05-07T13:10:19;1.27;;;1.10;;
10725;SDS011;5414;59.782;16.378;2023-05-07T13:12:45;2.70;;;1.40;;
10725;SDS011;5414;59.782;16.378;2023-05-07T13:15:11;1.60;;;1.47;;
10725;SDS011;5414;59.782;16.378;2023-05-07T13:17:37;1.23;;;1.13;;
10725;SDS011;5414;59.782;16.378;2023-05-07T13:20:03;1.37;;;1.27;;
10725;SDS011;5414;59.782;16.378;2023-05-07T13:22:30;1.83;;;1.20;;
10725;SDS011;5414;59.782;16.378;2023-05-07T13:24:56;3.17;;;1.53;;
10725;SDS011;5414;59.782;16.378;2023-05-07T13:27:22;1.83;;;1.50;;
10725;SDS011;5414;59.782;16.378;2023-05-07T13:29:48;2.37;;;1.40;;
10725;SDS011;5414;59.782;16.378;2023-05-07T13:32:16;2.40;;;1.30;;
10725;SDS011;5414;59.782;16.378;2023-05-07T13:34:42;2.10;;;1.40;;
10725;SDS011;5414;59.782;16.378;2023-05-07T13:37:08;2.70;;;1.23;;
10725;SDS011;5414;59.782;16.378;2023-05-07T13:39:34;4.13;;;1.40;;
10725;SDS011;5414;59.782;16.378;2023-05-07T13:42:00;3.03;;;1.20;;
10725;SDS011;5414;59.782;16.378;2023-05-07T13:44:26;1.73;;;1.20;;
10725;SDS011;5414;59.782;16.378;2023-05-07T13:46:52;2.23;;;1.10;;
10725;SDS011;5414;59.782;16.378;2023-05-07T13:49:18;1.67;;;1.23;;
10725;SDS011;5414;59.782;16.378;2023-05-07T13:51:44;2.10;;;1.30;;
10725;SDS011;5414;59.782;16.378;2023-05-07T13:54:10;1.43;;;1.10;;
10725;SDS011;5414;59.782;16.378;2023-05-07T13:56:36;2.83;;;1.30;;
10725;SDS011;5414;59.782;16.378;2023-05-07T13:59:02;1.50;;;1.10;;
10725;SDS011;5414;59.782;16.378;2023-05-07T14:01:29;1.63;;;1.30;;
10725;SDS011;5414;59.782;16.378;2023-05-07T14:03:55;2.50;;;1.20;;
10725;SDS011;5414;59.782;16.378;2023-05-07T14:06:22;1.87;;;1.20;;
10725;SDS011;5414;59.782;16.378;2023-05-07T14:08:48;1.53;;;1.30;;
10725;SDS011;5414;59.782;16.378;2023-05-07T14:11:14;2.70;;;1.20;;
10725;SDS011;5414;59.782;16.378;2023-05-07T14:13:41;1.33;;;1.10;;
10725;SDS011;5414;59.782;16.378;2023-05-07T14:16:07;2.40;;;1.13;;
10725;SDS011;5414;59.782;16.378;2023-05-07T14:18:33;1.43;;;1.13;;
10725;SDS011;5414;59.782;16.378;2023-05-07T14:21:00;1.80;;;1.00;;
10725;SDS011;5414;59.782;16.378;2023-05-07T14:23:26;1.57;;;1.10;;
10725;SDS011;5414;59.782;16.378;2023-05-07T14:25:53;2.17;;;1.20;;
10725;SDS011;5414;59.782;16.378;2023-05-07T14:28:19;2.13;;;1.10;;
10725;SDS011;5414;59.782;16.378;2023-05-07T14:30:45;1.47;;;1.30;;
10725;SDS011;5414;59.782;16.378;2023-05-07T14:33:11;1.53;;;1.10;;
10725;SDS011;5414;59.782;16.378;2023-05-07T14:35:37;2.27;;;1.30;;
10725;SDS011;5414;59.782;16.378;2023-05-07T14:38:03;1.30;;;1.20;;
10725;SDS011;5414;59.782;16.378;2023-05-07T14:40:29;2.17;;;1.20;;
10725;SDS011;5414;59.782;16.378;2023-05-07T14:42:55;1.57;;;1.20;;
10725;SDS011;5414;59.782;16.378;2023-05-07T14:45:22;2.10;;;1.30;;
10725;SDS011;5414;59.782;16.378;2023-05-07T14:47:48;1.67;;;1.20;;
10725;SDS011;5414;59.782;16.378;2023-05-07T14:50:14;1.93;;;1.10;;
10725;SDS011;5414;59.782;16.378;2023-05-07T14:52:40;1.97;;;1.20;;
10725;SDS011;5414;59.782;16.378;2023-05-07T14:55:06;2.40;;;1.30;;
10725;SDS011;5414;59.782;16.378;2023-05-07T14:57:32;1.40;;;1.30;;